createdAt,value
2017-05-26T00:00:18.572Z,0.00
2017-05-26T00:01:13.607Z,0.00
2017-05-26T00:02:13.079Z,0.00
2017-05-26T00:03:14.208Z,0.00
2017-05-26T00:04:08.551Z,0.00
2017-05-26T00:05:03.086Z,0.00
2017-05-26T00:05:57.575Z,0.00
2017-05-26T00:06:57.105Z,0.00
2017-05-26T00:07:52.264Z,0.00
2017-05-26T00:08:51.790Z,0.00
2017-05-26T00:09:52.586Z,0.00
2017-05-26T00:10:47.082Z,0.00
2017-05-26T00:11:42.033Z,0.00
2017-05-26T00:12:36.277Z,0.00
2017-05-26T00:13:35.609Z,0.00
2017-05-26T00:14:30.577Z,0.00
2017-05-26T00:15:30.074Z,0.00
2017-05-26T00:16:31.086Z,0.00
2017-05-26T00:17:25.595Z,0.00
2017-05-26T00:18:20.147Z,0.00
2017-05-26T00:19:14.649Z,0.00
2017-05-26T00:20:14.191Z,0.00
2017-05-26T00:21:08.138Z,0.00
2017-05-26T00:22:09.062Z,0.00
2017-05-26T00:23:02.604Z,0.00
2017-05-26T00:23:57.596Z,0.00
2017-05-26T00:24:57.111Z,0.00
2017-05-26T00:25:51.222Z,0.00
2017-05-26T00:26:45.018Z,0.00
2017-05-26T00:27:44.993Z,0.00
2017-05-26T00:28:38.982Z,0.00
2017-05-26T00:29:38.879Z,0.00
2017-05-26T00:30:27.857Z,0.00
2017-05-26T00:31:22.383Z,0.00
2017-05-26T00:32:22.497Z,0.00
2017-05-26T00:33:22.826Z,0.00
2017-05-26T00:34:17.341Z,0.00
2017-05-26T00:35:11.895Z,0.00
2017-05-26T00:36:11.396Z,0.00
2017-05-26T00:37:05.467Z,0.00
2017-05-26T00:38:05.357Z,0.00
2017-05-26T00:38:59.248Z,0.00
2017-05-26T00:39:59.294Z,0.00
2017-05-26T00:40:48.192Z,0.00
2017-05-26T00:41:43.037Z,0.00
2017-05-26T00:42:42.286Z,0.00
2017-05-26T00:43:42.173Z,0.00
2017-05-26T00:44:37.136Z,0.00
2017-05-26T00:45:42.884Z,0.00
2017-05-26T00:46:36.607Z,0.00
2017-05-26T00:47:31.773Z,0.00
2017-05-26T00:48:31.070Z,0.00
2017-05-26T00:49:31.078Z,0.00
2017-05-26T00:50:30.995Z,0.00
2017-05-26T00:51:19.986Z,0.00
2017-05-26T00:52:25.487Z,0.00
2017-05-26T00:53:25.469Z,0.00
2017-05-26T00:54:19.461Z,0.00
2017-05-26T00:55:08.397Z,0.00
2017-05-26T00:56:02.897Z,0.00
2017-05-26T00:57:02.443Z,0.00
2017-05-26T00:58:03.365Z,0.00
2017-05-26T00:58:57.923Z,0.00
2017-05-26T00:59:52.767Z,0.00
2017-05-26T01:00:46.979Z,0.00
2017-05-26T01:01:46.556Z,0.00
2017-05-26T01:02:41.459Z,0.00
2017-05-26T01:03:40.997Z,0.00
2017-05-26T01:04:34.922Z,0.00
2017-05-26T01:05:29.917Z,0.00
2017-05-26T01:06:29.397Z,0.00
2017-05-26T01:07:24.379Z,0.00
2017-05-26T01:08:23.894Z,0.00
2017-05-26T01:09:17.861Z,0.00
2017-05-26T01:10:11.858Z,0.00
2017-05-26T01:11:06.831Z,0.00
2017-05-26T01:12:01.276Z,0.00
2017-05-26T01:12:56.394Z,0.00
2017-05-26T01:13:55.391Z,0.00
2017-05-26T01:14:49.285Z,0.00
2017-05-26T01:15:49.221Z,0.00
2017-05-26T01:16:43.421Z,0.00
2017-05-26T01:17:49.191Z,0.00
2017-05-26T01:18:43.133Z,0.00
2017-05-26T01:19:49.077Z,0.00
2017-05-26T01:20:44.071Z,0.00
2017-05-26T01:21:44.190Z,0.00
2017-05-26T01:22:38.523Z,0.00
2017-05-26T01:23:33.092Z,0.00
2017-05-26T01:24:32.584Z,0.00
2017-05-26T01:25:33.012Z,0.00
2017-05-26T01:26:27.472Z,0.00
2017-05-26T01:27:27.515Z,0.00
2017-05-26T01:28:21.018Z,0.00
2017-05-26T01:29:20.899Z,0.00
2017-05-26T01:30:14.987Z,0.00
2017-05-26T01:31:15.249Z,0.00
2017-05-26T01:32:09.776Z,0.00
2017-05-26T01:33:09.915Z,0.00
2017-05-26T01:34:04.276Z,0.00
2017-05-26T01:34:58.915Z,0.00
2017-05-26T01:35:58.349Z,0.00
2017-05-26T01:36:52.659Z,0.00
2017-05-26T01:37:47.741Z,0.00
2017-05-26T01:38:46.851Z,0.00
2017-05-26T01:39:41.749Z,0.00
2017-05-26T01:40:41.295Z,0.00
2017-05-26T01:41:42.801Z,0.00
2017-05-26T01:42:36.711Z,0.00
2017-05-26T01:43:31.257Z,0.00
2017-05-26T01:44:25.830Z,0.00
2017-05-26T01:45:26.408Z,0.00
2017-05-26T01:46:31.822Z,0.00
2017-05-26T01:47:26.273Z,0.00
2017-05-26T01:48:20.735Z,0.00
2017-05-26T01:49:15.280Z,0.00
2017-05-26T01:50:09.773Z,0.00
2017-05-26T01:51:04.320Z,0.00
2017-05-26T01:52:03.902Z,0.00
2017-05-26T01:52:59.389Z,0.00
2017-05-26T01:53:58.412Z,0.00
2017-05-26T01:54:58.287Z,0.00
2017-05-26T01:55:53.203Z,0.00
2017-05-26T01:56:58.739Z,0.00
2017-05-26T01:57:53.670Z,0.00
2017-05-26T01:58:53.172Z,0.00
2017-05-26T01:59:54.172Z,0.00
2017-05-26T02:00:53.650Z,0.00
2017-05-26T02:01:48.623Z,0.00
2017-05-26T02:02:48.473Z,0.00
2017-05-26T02:03:48.167Z,0.00
2017-05-26T02:04:43.117Z,0.00
2017-05-26T02:05:37.593Z,0.00
2017-05-26T02:06:32.174Z,0.00
2017-05-26T02:07:31.647Z,0.00
2017-05-26T02:08:31.595Z,0.00
2017-05-26T02:09:26.862Z,0.00
2017-05-26T02:10:26.079Z,0.00
2017-05-26T02:11:20.133Z,0.00
2017-05-26T02:12:21.026Z,0.00
2017-05-26T02:13:14.603Z,0.00
2017-05-26T02:14:15.468Z,0.00
2017-05-26T02:15:21.050Z,0.00
2017-05-26T02:16:14.995Z,0.00
2017-05-26T02:17:09.893Z,0.00
2017-05-26T02:18:04.429Z,0.00
2017-05-26T02:18:58.968Z,0.00
2017-05-26T02:19:53.510Z,0.00
2017-05-26T02:20:53.094Z,0.00
2017-05-26T02:21:48.040Z,0.00
2017-05-26T02:22:47.595Z,0.00
2017-05-26T02:23:48.465Z,0.00
2017-05-26T02:24:42.970Z,0.00
2017-05-26T02:25:37.496Z,0.00
2017-05-26T02:26:32.251Z,0.00
2017-05-26T02:27:32.883Z,0.00
2017-05-26T02:28:27.072Z,0.00
2017-05-26T02:29:26.591Z,0.00
2017-05-26T02:30:27.534Z,0.00
2017-05-26T02:31:27.080Z,0.00
2017-05-26T02:32:21.044Z,0.00
2017-05-26T02:33:20.964Z,0.00
2017-05-26T02:34:14.984Z,0.00
2017-05-26T02:35:09.889Z,0.00
2017-05-26T02:36:04.454Z,0.00
2017-05-26T02:36:58.946Z,0.00
2017-05-26T02:37:58.526Z,0.00
2017-05-26T02:38:52.497Z,0.00
2017-05-26T02:39:53.426Z,0.00
2017-05-26T02:40:46.919Z,0.00
2017-05-26T02:41:47.847Z,0.00
2017-05-26T02:42:53.403Z,0.00
2017-05-26T02:43:53.432Z,0.00
2017-05-26T02:44:54.322Z,0.00
2017-05-26T02:45:53.807Z,0.00
2017-05-26T02:46:47.783Z,0.00
2017-05-26T02:47:47.806Z,0.00
2017-05-26T02:48:42.660Z,0.00
2017-05-26T02:49:42.664Z,0.00
2017-05-26T02:50:37.116Z,0.00
2017-05-26T02:51:36.710Z,0.00
2017-05-26T02:52:36.674Z,0.00
2017-05-26T02:53:30.604Z,0.00
2017-05-26T02:54:24.582Z,0.00
2017-05-26T02:55:18.539Z,0.00
2017-05-26T02:56:12.968Z,0.00
2017-05-26T02:57:07.490Z,0.00
2017-05-26T02:58:06.985Z,0.00
2017-05-26T02:59:00.963Z,0.00
2017-05-26T03:00:00.897Z,0.00
2017-05-26T03:00:54.912Z,0.00
2017-05-26T03:01:49.807Z,0.00
2017-05-26T03:02:49.313Z,0.00
2017-05-26T03:03:49.281Z,0.00
2017-05-26T03:04:43.218Z,0.00
2017-05-26T03:05:38.199Z,0.00
2017-05-26T03:06:32.771Z,0.00
2017-05-26T03:07:28.063Z,0.00
2017-05-26T03:08:21.850Z,0.00
2017-05-26T03:09:22.314Z,0.00
2017-05-26T03:10:16.811Z,0.00
2017-05-26T03:11:16.364Z,0.00
2017-05-26T03:12:16.293Z,0.00
2017-05-26T03:13:10.286Z,0.00
2017-05-26T03:14:16.161Z,0.00
2017-05-26T03:15:10.172Z,0.00
2017-05-26T03:16:10.119Z,0.00
2017-05-26T03:17:10.120Z,0.00
2017-05-26T03:18:16.088Z,0.00
2017-05-26T03:19:10.995Z,0.00
2017-05-26T03:20:05.491Z,0.00
2017-05-26T03:21:05.059Z,0.00
2017-05-26T03:21:59.012Z,0.00
2017-05-26T03:23:00.005Z,0.01
2017-05-26T03:23:53.492Z,0.01
2017-05-26T03:24:54.470Z,0.01
2017-05-26T03:25:59.930Z,0.01
2017-05-26T03:26:53.872Z,0.01
2017-05-26T03:27:48.864Z,0.01
2017-05-26T03:28:43.441Z,0.01
2017-05-26T03:29:37.929Z,0.01
2017-05-26T03:30:32.453Z,0.01
2017-05-26T03:31:32.010Z,0.01
2017-05-26T03:32:27.518Z,0.01
2017-05-26T03:33:26.726Z,0.01
2017-05-26T03:34:20.399Z,0.01
2017-05-26T03:35:14.474Z,0.01
2017-05-26T03:36:08.316Z,0.01
2017-05-26T03:37:03.315Z,0.01
2017-05-26T03:38:02.947Z,0.02
2017-05-26T03:38:56.862Z,0.02
2017-05-26T03:39:50.762Z,0.02
2017-05-26T03:40:44.729Z,0.02
2017-05-26T03:41:44.651Z,0.02
2017-05-26T03:42:38.671Z,0.02
2017-05-26T03:43:33.187Z,0.02
2017-05-26T03:44:27.568Z,0.02
2017-05-26T03:45:27.074Z,0.02
2017-05-26T03:46:22.035Z,0.02
2017-05-26T03:47:21.936Z,0.02
2017-05-26T03:48:10.480Z,0.02
2017-05-26T03:49:10.034Z,0.02
2017-05-26T03:50:03.994Z,0.02
2017-05-26T03:50:57.959Z,0.02
2017-05-26T03:51:52.982Z,0.02
2017-05-26T03:52:47.484Z,0.03
2017-05-26T03:53:42.010Z,0.03
2017-05-26T03:54:41.457Z,0.03
2017-05-26T03:55:35.438Z,0.03
2017-05-26T03:56:36.396Z,0.03
2017-05-26T03:57:36.933Z,0.03
2017-05-26T03:58:31.450Z,0.03
2017-05-26T03:59:25.950Z,0.03
2017-05-26T04:00:25.455Z,0.03
2017-05-26T04:01:19.426Z,0.03
2017-05-26T04:02:13.394Z,0.03
2017-05-26T04:03:13.356Z,0.04
2017-05-26T04:04:13.300Z,0.04
2017-05-26T04:05:02.286Z,0.04
2017-05-26T04:05:56.877Z,0.04
2017-05-26T04:06:56.293Z,0.04
2017-05-26T04:07:50.293Z,0.04
2017-05-26T04:08:45.311Z,0.04
2017-05-26T04:09:44.765Z,0.04
2017-05-26T04:10:39.733Z,0.04
2017-05-26T04:11:39.244Z,0.04
2017-05-26T04:12:33.207Z,0.04
2017-05-26T04:13:28.149Z,0.05
2017-05-26T04:14:27.660Z,0.05
2017-05-26T04:15:22.045Z,0.05
2017-05-26T04:16:22.651Z,0.05
2017-05-26T04:17:16.076Z,0.05
2017-05-26T04:18:11.070Z,0.05
2017-05-26T04:19:10.624Z,0.05
2017-05-26T04:20:05.557Z,0.05
2017-05-26T04:21:11.085Z,0.05
2017-05-26T04:22:05.037Z,0.05
2017-05-26T04:23:00.002Z,0.05
2017-05-26T04:23:59.473Z,0.05
2017-05-26T04:24:48.473Z,0.05
2017-05-26T04:25:48.100Z,0.05
2017-05-26T04:26:36.947Z,0.05
2017-05-26T04:27:36.503Z,0.06
2017-05-26T04:28:37.469Z,0.06
2017-05-26T04:29:31.961Z,0.06
2017-05-26T04:30:26.472Z,0.06
2017-05-26T04:31:21.012Z,0.08
2017-05-26T04:32:20.596Z,0.09
2017-05-26T04:33:15.479Z,0.10
2017-05-26T04:34:15.027Z,0.11
2017-05-26T04:34:57.993Z,0.12
2017-05-26T04:35:45.536Z,0.14
2017-05-26T04:36:28.471Z,0.14
2017-05-26T04:37:16.043Z,0.13
2017-05-26T04:38:11.002Z,0.13
2017-05-26T04:38:58.497Z,0.14
2017-05-26T04:39:41.510Z,0.17
2017-05-26T04:40:29.003Z,0.16
2017-05-26T04:41:11.977Z,0.17
2017-05-26T04:41:59.877Z,0.16
2017-05-26T04:42:48.515Z,0.16
2017-05-26T04:43:36.139Z,0.15
2017-05-26T04:44:24.025Z,0.15
2017-05-26T04:45:23.968Z,0.16
2017-05-26T04:46:18.875Z,0.16
2017-05-26T04:47:18.461Z,0.16
2017-05-26T04:48:12.444Z,0.17
2017-05-26T04:49:12.916Z,0.17
2017-05-26T04:50:07.306Z,0.17
2017-05-26T04:51:06.862Z,0.18
2017-05-26T04:52:07.370Z,0.17
2017-05-26T04:53:01.869Z,0.16
2017-05-26T04:54:01.296Z,0.16
2017-05-26T04:54:50.277Z,0.16
2017-05-26T04:55:43.788Z,0.16
2017-05-26T04:56:32.759Z,0.16
2017-05-26T04:57:32.884Z,0.16
2017-05-26T04:58:32.834Z,0.16
2017-05-26T04:59:27.765Z,0.16
2017-05-26T05:00:22.253Z,0.17
2017-05-26T05:01:21.769Z,0.17
2017-05-26T05:02:15.734Z,0.17
2017-05-26T05:03:16.670Z,0.18
2017-05-26T05:04:16.272Z,0.18
2017-05-26T05:05:11.294Z,0.19
2017-05-26T05:06:16.754Z,0.20
2017-05-26T05:07:10.705Z,0.19
2017-05-26T05:08:10.168Z,0.19
2017-05-26T05:08:59.083Z,0.20
2017-05-26T05:09:53.710Z,0.20
2017-05-26T05:10:48.266Z,0.20
2017-05-26T05:11:47.865Z,0.22
2017-05-26T05:12:36.866Z,0.23
2017-05-26T05:13:36.636Z,0.23
2017-05-26T05:14:19.192Z,0.23
2017-05-26T05:15:13.824Z,0.22
2017-05-26T05:16:08.232Z,0.22
2017-05-26T05:17:09.115Z,0.22
2017-05-26T05:18:03.785Z,0.23
2017-05-26T05:18:58.214Z,0.23
2017-05-26T05:19:46.374Z,0.24
2017-05-26T05:20:40.245Z,0.24
2017-05-26T05:21:27.966Z,0.25
2017-05-26T05:22:15.922Z,0.25
2017-05-26T05:23:11.115Z,0.26
2017-05-26T05:24:05.932Z,0.25
2017-05-26T05:24:59.494Z,0.25
2017-05-26T05:25:53.953Z,0.25
2017-05-26T05:26:41.973Z,0.25
2017-05-26T05:27:30.035Z,0.25
2017-05-26T05:28:17.649Z,0.25
2017-05-26T05:29:18.315Z,0.26
2017-05-26T05:30:06.046Z,0.27
2017-05-26T05:30:54.991Z,0.26
2017-05-26T05:31:49.378Z,0.26
2017-05-26T05:32:43.908Z,0.27
2017-05-26T05:33:32.974Z,0.27
2017-05-26T05:34:32.328Z,0.27
2017-05-26T05:35:32.267Z,0.28
2017-05-26T05:36:20.227Z,0.29
2017-05-26T05:37:20.368Z,0.29
2017-05-26T05:38:20.243Z,0.30
2017-05-26T05:39:14.316Z,0.29
2017-05-26T05:40:08.395Z,0.29
2017-05-26T05:40:56.380Z,0.29
2017-05-26T05:41:50.363Z,0.29
2017-05-26T05:42:39.272Z,0.29
2017-05-26T05:43:33.758Z,0.29
2017-05-26T05:44:28.376Z,0.29
2017-05-26T05:45:27.841Z,0.30
2017-05-26T05:46:21.877Z,0.31
2017-05-26T05:47:17.124Z,0.32
2017-05-26T05:48:05.395Z,0.33
2017-05-26T05:48:59.969Z,0.33
2017-05-26T05:49:58.883Z,0.32
2017-05-26T05:50:59.414Z,0.31
2017-05-26T05:51:53.100Z,0.32
2017-05-26T05:52:42.113Z,0.32
2017-05-26T05:53:37.003Z,0.33
2017-05-26T05:54:25.008Z,0.33
2017-05-26T05:55:20.029Z,0.33
2017-05-26T05:56:13.344Z,0.34
2017-05-26T05:57:07.432Z,0.35
2017-05-26T05:58:07.630Z,0.35
2017-05-26T05:59:00.910Z,0.36
2017-05-26T06:00:01.136Z,0.36
2017-05-26T06:00:55.129Z,0.36
2017-05-26T06:01:55.150Z,0.36
2017-05-26T06:02:50.074Z,0.38
2017-05-26T06:03:55.756Z,0.39
2017-05-26T06:04:50.888Z,0.40
2017-05-26T06:05:45.019Z,0.40
2017-05-26T06:06:38.409Z,0.40
2017-05-26T06:07:26.944Z,0.40
2017-05-26T06:08:21.937Z,0.39
2017-05-26T06:09:16.470Z,0.39
2017-05-26T06:10:10.063Z,0.39
2017-05-26T06:11:09.946Z,0.39
2017-05-26T06:12:03.935Z,0.40
2017-05-26T06:12:51.921Z,0.40
2017-05-26T06:13:39.882Z,0.40
2017-05-26T06:14:40.846Z,0.40
2017-05-26T06:15:29.382Z,0.40
2017-05-26T06:16:17.964Z,0.40
2017-05-26T06:17:17.519Z,0.40
2017-05-26T06:18:12.446Z,0.39
2017-05-26T06:19:06.913Z,0.38
2017-05-26T06:20:06.458Z,0.38
2017-05-26T06:20:54.494Z,0.39
2017-05-26T06:21:54.490Z,0.41
2017-05-26T06:22:48.439Z,0.43
2017-05-26T06:23:42.427Z,0.44
2017-05-26T06:24:25.447Z,0.45
2017-05-26T06:25:18.908Z,0.45
2017-05-26T06:26:07.925Z,0.45
2017-05-26T06:26:56.418Z,0.45
2017-05-26T06:27:44.021Z,0.46
2017-05-26T06:28:32.011Z,0.47
2017-05-26T06:29:20.926Z,0.47
2017-05-26T06:30:15.503Z,0.48
2017-05-26T06:31:08.994Z,0.47
2017-05-26T06:32:10.002Z,0.47
2017-05-26T06:33:10.518Z,0.48
2017-05-26T06:34:04.056Z,0.48
2017-05-26T06:34:53.058Z,0.48
2017-05-26T06:35:52.558Z,0.48
2017-05-26T06:36:46.639Z,0.49
2017-05-26T06:37:40.542Z,0.49
2017-05-26T06:38:28.503Z,0.49
2017-05-26T06:39:11.484Z,0.50
2017-05-26T06:40:05.031Z,0.50
2017-05-26T06:40:59.062Z,0.51
2017-05-26T06:41:41.984Z,0.51
2017-05-26T06:42:29.625Z,0.51
2017-05-26T06:43:18.507Z,0.51
2017-05-26T06:44:13.094Z,0.52
2017-05-26T06:45:06.567Z,0.51
2017-05-26T06:46:01.578Z,0.52
2017-05-26T06:47:01.077Z,0.52
2017-05-26T06:47:55.054Z,0.53
2017-05-26T06:48:50.026Z,0.53
2017-05-26T06:49:49.650Z,0.53
2017-05-26T06:50:43.609Z,0.52
2017-05-26T06:51:38.601Z,0.52
2017-05-26T06:52:32.166Z,0.52
2017-05-26T06:53:21.161Z,0.52
2017-05-26T06:54:15.598Z,0.52
2017-05-26T06:55:04.206Z,0.53
2017-05-26T06:55:52.707Z,0.53
2017-05-26T06:56:58.341Z,0.54
2017-05-26T06:57:52.327Z,0.55
2017-05-26T06:58:47.394Z,0.56
2017-05-26T06:59:46.840Z,0.56
2017-05-26T07:00:40.765Z,0.56
2017-05-26T07:01:34.995Z,0.57
2017-05-26T07:02:29.716Z,0.56
2017-05-26T07:03:29.234Z,0.56
2017-05-26T07:04:24.244Z,0.56
2017-05-26T07:05:18.753Z,0.56
2017-05-26T07:06:12.310Z,0.57
2017-05-26T07:07:00.283Z,0.57
2017-05-26T07:07:55.273Z,0.58
2017-05-26T07:08:48.798Z,0.59
2017-05-26T07:09:42.853Z,0.59
2017-05-26T07:10:36.795Z,0.58
2017-05-26T07:11:31.748Z,0.57
2017-05-26T07:12:31.335Z,0.56
2017-05-26T07:13:26.292Z,0.56
2017-05-26T07:14:20.776Z,0.56
2017-05-26T07:15:08.403Z,0.56
2017-05-26T07:16:09.259Z,0.57
2017-05-26T07:16:57.933Z,0.58
2017-05-26T07:17:57.433Z,0.59
2017-05-26T07:18:51.428Z,0.61
2017-05-26T07:19:34.391Z,0.61
2017-05-26T07:20:27.915Z,0.61
2017-05-26T07:21:28.896Z,0.60
2017-05-26T07:22:22.432Z,0.59
2017-05-26T07:23:16.432Z,0.58
2017-05-26T07:24:05.422Z,0.58
2017-05-26T07:25:04.950Z,0.59
2017-05-26T07:26:00.076Z,0.61
2017-05-26T07:26:53.450Z,0.61
2017-05-26T07:27:53.451Z,0.62
2017-05-26T07:28:41.452Z,0.63
2017-05-26T07:29:30.429Z,0.64
2017-05-26T07:30:23.964Z,0.63
2017-05-26T07:31:06.939Z,0.63
2017-05-26T07:32:06.475Z,0.64
2017-05-26T07:32:54.542Z,0.64
2017-05-26T07:33:42.445Z,0.65
2017-05-26T07:34:25.488Z,0.65
2017-05-26T07:35:18.960Z,0.66
2017-05-26T07:36:06.980Z,0.67
2017-05-26T07:37:00.930Z,0.68
2017-05-26T07:37:55.968Z,0.68
2017-05-26T07:38:44.571Z,0.69
2017-05-26T07:39:37.994Z,0.69
2017-05-26T07:40:37.989Z,0.69
2017-05-26T07:41:32.029Z,0.70
2017-05-26T07:42:26.022Z,0.70
2017-05-26T07:43:25.957Z,0.69
2017-05-26T07:44:19.893Z,0.69
2017-05-26T07:45:14.848Z,0.68
2017-05-26T07:46:09.455Z,0.68
2017-05-26T07:47:03.964Z,0.67
2017-05-26T07:47:57.540Z,0.67
2017-05-26T07:48:52.776Z,0.67
2017-05-26T07:49:46.038Z,0.67
2017-05-26T07:50:41.008Z,0.66
2017-05-26T07:51:34.584Z,0.65
2017-05-26T07:52:23.505Z,0.67
2017-05-26T07:53:12.108Z,0.67
2017-05-26T07:54:05.939Z,0.68
2017-05-26T07:54:59.630Z,0.69
2017-05-26T07:55:53.597Z,0.69
2017-05-26T07:56:47.590Z,0.70
2017-05-26T07:57:36.718Z,0.70
2017-05-26T07:58:31.076Z,0.71
2017-05-26T07:59:25.761Z,0.71
2017-05-26T08:00:25.166Z,0.71
2017-05-26T08:01:19.118Z,0.72
2017-05-26T08:02:14.086Z,0.72
2017-05-26T08:03:07.637Z,0.73
2017-05-26T08:04:02.709Z,0.74
2017-05-26T08:05:02.511Z,0.74
2017-05-26T08:05:57.182Z,0.74
2017-05-26T08:06:51.714Z,0.73
2017-05-26T08:07:46.247Z,0.73
2017-05-26T08:08:40.810Z,0.73
2017-05-26T08:09:35.307Z,0.74
2017-05-26T08:10:29.887Z,0.75
2017-05-26T08:11:18.447Z,0.76
2017-05-26T08:12:12.024Z,0.76
2017-05-26T08:13:12.026Z,0.76
2017-05-26T08:14:00.974Z,0.76
2017-05-26T08:15:00.466Z,0.74
2017-05-26T08:15:55.279Z,0.74
2017-05-26T08:16:54.415Z,0.75
2017-05-26T08:17:54.413Z,0.76
2017-05-26T08:18:49.359Z,0.77
2017-05-26T08:19:48.917Z,0.78
2017-05-26T08:20:42.908Z,0.79
2017-05-26T08:21:31.933Z,0.78
2017-05-26T08:22:19.450Z,0.79
2017-05-26T08:23:19.457Z,0.79
2017-05-26T08:24:08.455Z,0.78
2017-05-26T08:25:07.925Z,0.76
2017-05-26T08:26:02.945Z,0.76
2017-05-26T08:26:56.530Z,0.76
2017-05-26T08:27:50.443Z,0.75
2017-05-26T08:28:38.558Z,0.74
2017-05-26T08:29:32.489Z,0.74
2017-05-26T08:30:27.416Z,0.75
2017-05-26T08:31:26.925Z,0.74
2017-05-26T08:32:09.960Z,0.75
2017-05-26T08:33:03.467Z,0.73
2017-05-26T08:33:57.540Z,0.73
2017-05-26T08:34:46.493Z,0.73
2017-05-26T08:35:45.966Z,0.74
2017-05-26T08:36:34.951Z,0.75
2017-05-26T08:37:23.504Z,0.77
2017-05-26T08:38:17.972Z,0.80
2017-05-26T08:39:11.578Z,0.81
2017-05-26T08:40:06.560Z,0.82
2017-05-26T08:41:07.090Z,0.82
2017-05-26T08:41:54.639Z,0.82
2017-05-26T08:42:48.614Z,0.83
2017-05-26T08:43:37.612Z,0.85
2017-05-26T08:44:31.106Z,0.83
2017-05-26T08:45:19.167Z,0.83
2017-05-26T08:46:02.146Z,0.86
2017-05-26T08:46:50.703Z,0.83
2017-05-26T08:47:44.224Z,0.84
2017-05-26T08:48:39.244Z,0.85
2017-05-26T08:49:38.712Z,0.89
2017-05-26T08:50:27.716Z,0.86
2017-05-26T08:51:21.251Z,0.86
2017-05-26T08:52:15.237Z,0.86
2017-05-26T08:53:15.196Z,0.86
2017-05-26T08:54:04.227Z,0.86
2017-05-26T08:55:03.758Z,0.85
2017-05-26T08:55:57.719Z,0.86
2017-05-26T08:56:52.724Z,0.86
2017-05-26T08:57:46.319Z,0.86
2017-05-26T08:58:40.285Z,0.86
2017-05-26T08:59:28.530Z,0.86
2017-05-26T09:00:23.221Z,0.86
2017-05-26T09:01:22.864Z,0.85
2017-05-26T09:02:10.724Z,0.84
2017-05-26T09:02:58.756Z,0.85
2017-05-26T09:03:58.700Z,0.87
2017-05-26T09:04:54.062Z,0.86
2017-05-26T09:05:48.238Z,0.86
2017-05-26T09:06:36.879Z,0.86
2017-05-26T09:07:36.440Z,0.88
2017-05-26T09:08:31.285Z,0.89
2017-05-26T09:09:25.893Z,0.89
2017-05-26T09:10:26.458Z,0.88
2017-05-26T09:11:25.972Z,0.87
2017-05-26T09:12:20.972Z,0.87
2017-05-26T09:13:09.503Z,0.88
2017-05-26T09:14:10.008Z,0.88
2017-05-26T09:14:58.636Z,0.88
2017-05-26T09:15:58.153Z,0.88
2017-05-26T09:16:46.120Z,0.89
2017-05-26T09:17:40.120Z,0.90
2017-05-26T09:18:29.068Z,0.89
2017-05-26T09:19:23.694Z,0.88
2017-05-26T09:20:18.158Z,0.86
2017-05-26T09:21:12.858Z,0.84
2017-05-26T09:22:07.246Z,0.80
2017-05-26T09:23:06.858Z,0.75
2017-05-26T09:23:55.844Z,0.71
2017-05-26T09:24:55.339Z,0.70
2017-05-26T09:25:44.349Z,0.69
2017-05-26T09:26:32.961Z,0.69
2017-05-26T09:27:26.414Z,0.72
2017-05-26T09:28:14.420Z,0.74
2017-05-26T09:29:03.487Z,0.81
2017-05-26T09:29:52.017Z,0.82
2017-05-26T09:30:45.497Z,0.85
2017-05-26T09:31:40.776Z,0.87
2017-05-26T09:32:34.064Z,0.90
2017-05-26T09:33:33.957Z,0.90
2017-05-26T09:34:22.994Z,0.91
2017-05-26T09:35:17.536Z,0.91
2017-05-26T09:36:11.077Z,0.90
2017-05-26T09:37:05.436Z,0.90
2017-05-26T09:37:54.054Z,0.90
2017-05-26T09:38:42.637Z,0.90
2017-05-26T09:39:36.216Z,0.90
2017-05-26T09:40:31.189Z,0.92
2017-05-26T09:41:25.699Z,0.91
2017-05-26T09:42:19.481Z,0.20
2017-05-26T09:43:07.136Z,0.92
2017-05-26T09:43:56.166Z,0.93
2017-05-26T09:44:44.742Z,0.94
2017-05-26T09:45:32.303Z,0.97
2017-05-26T09:46:20.273Z,0.94
2017-05-26T09:47:14.236Z,0.93
2017-05-26T09:48:03.236Z,0.92
2017-05-26T09:48:56.772Z,0.90
2017-05-26T09:49:39.769Z,0.90
2017-05-26T09:50:39.305Z,0.90
2017-05-26T09:51:34.271Z,0.91
2017-05-26T09:52:28.803Z,0.92
2017-05-26T09:53:22.448Z,0.93
2017-05-26T09:54:16.345Z,0.93
2017-05-26T09:55:10.326Z,0.93
2017-05-26T09:56:04.320Z,0.94
2017-05-26T09:56:59.397Z,0.94
2017-05-26T09:57:58.917Z,0.94
2017-05-26T09:58:52.876Z,0.94
2017-05-26T09:59:46.851Z,0.95
2017-05-26T10:00:35.824Z,0.95
2017-05-26T10:01:29.347Z,0.95
2017-05-26T10:02:23.312Z,0.94
2017-05-26T10:03:23.327Z,0.95
2017-05-26T10:04:11.368Z,0.95
2017-05-26T10:05:11.307Z,0.97
2017-05-26T10:06:00.285Z,0.97
2017-05-26T10:07:00.847Z,0.96
2017-05-26T10:07:54.414Z,0.97
2017-05-26T10:08:49.405Z,0.97
2017-05-26T10:09:42.967Z,0.97
2017-05-26T10:10:36.902Z,0.95
2017-05-26T10:11:24.842Z,0.92
2017-05-26T10:12:18.874Z,0.90
2017-05-26T10:13:07.888Z,0.86
2017-05-26T10:14:07.421Z,0.82
2017-05-26T10:15:01.420Z,0.75
2017-05-26T10:15:56.359Z,0.68
2017-05-26T10:17:01.938Z,0.60
2017-05-26T10:17:44.955Z,0.54
2017-05-26T10:18:39.433Z,0.51
2017-05-26T10:19:32.979Z,0.50
2017-05-26T10:20:22.009Z,0.51
2017-05-26T10:21:16.547Z,0.54
2017-05-26T10:22:11.098Z,0.59
2017-05-26T10:23:10.652Z,0.68
2017-05-26T10:23:59.607Z,0.76
2017-05-26T10:24:59.169Z,0.86
2017-05-26T10:25:48.351Z,0.90
2017-05-26T10:26:36.716Z,0.94
2017-05-26T10:27:25.284Z,0.96
2017-05-26T10:28:24.880Z,0.97
2017-05-26T10:29:18.815Z,0.97
2017-05-26T10:30:07.815Z,0.97
2017-05-26T10:31:01.384Z,0.97
2017-05-26T10:32:01.334Z,0.97
2017-05-26T10:32:50.324Z,0.97
2017-05-26T10:33:43.879Z,0.95
2017-05-26T10:34:26.919Z,0.96
2017-05-26T10:35:21.357Z,0.97
2017-05-26T10:36:09.073Z,0.96
2017-05-26T10:37:02.932Z,0.95
2017-05-26T10:37:56.971Z,0.94
2017-05-26T10:38:50.892Z,0.98
2017-05-26T10:39:50.902Z,0.97
2017-05-26T10:40:39.884Z,0.98
2017-05-26T10:41:39.806Z,0.99
2017-05-26T10:42:27.420Z,0.99
2017-05-26T10:43:21.397Z,0.98
2017-05-26T10:44:09.369Z,0.98
2017-05-26T10:44:58.383Z,0.96
2017-05-26T10:45:45.892Z,0.99
2017-05-26T10:46:45.885Z,0.99
2017-05-26T10:47:40.120Z,0.97
2017-05-26T10:48:34.867Z,0.97
2017-05-26T10:49:28.429Z,0.99
2017-05-26T10:50:28.427Z,1.00
2017-05-26T10:51:23.390Z,0.99
2017-05-26T10:52:17.892Z,0.99
2017-05-26T10:53:12.511Z,0.99
2017-05-26T10:54:07.028Z,0.96
2017-05-26T10:55:06.590Z,0.96
2017-05-26T10:56:01.556Z,0.95
2017-05-26T10:56:56.120Z,0.96
2017-05-26T10:57:55.753Z,0.97
2017-05-26T10:58:49.634Z,0.97
2017-05-26T10:59:44.630Z,0.96
2017-05-26T11:00:38.159Z,0.97
2017-05-26T11:01:33.166Z,0.97
2017-05-26T11:02:21.679Z,0.97
2017-05-26T11:03:10.237Z,0.97
2017-05-26T11:04:03.753Z,0.97
2017-05-26T11:04:52.742Z,0.97
2017-05-26T11:05:41.314Z,0.98
2017-05-26T11:06:35.840Z,0.99
2017-05-26T11:07:35.395Z,0.98
2017-05-26T11:08:23.655Z,0.98
2017-05-26T11:09:17.436Z,0.97
2017-05-26T11:10:06.364Z,0.99
2017-05-26T11:11:05.903Z,1.00
2017-05-26T11:11:59.901Z,1.00
2017-05-26T11:12:54.894Z,0.99
2017-05-26T11:13:42.736Z,0.99
2017-05-26T11:14:42.377Z,1.02
2017-05-26T11:15:36.385Z,0.99
2017-05-26T11:16:30.398Z,0.98
2017-05-26T11:17:13.342Z,0.99
2017-05-26T11:18:06.954Z,1.00
2017-05-26T11:18:56.177Z,1.01
2017-05-26T11:19:50.460Z,0.98
2017-05-26T11:20:49.989Z,0.94
2017-05-26T11:21:49.956Z,0.91
2017-05-26T11:22:44.985Z,0.91
2017-05-26T11:23:33.478Z,0.90
2017-05-26T11:24:22.375Z,0.90
2017-05-26T11:25:15.573Z,0.92
2017-05-26T11:26:09.542Z,0.18
2017-05-26T11:26:58.600Z,0.94
2017-05-26T11:28:04.101Z,0.95
2017-05-26T11:28:59.091Z,0.95
2017-05-26T11:29:46.697Z,0.95
2017-05-26T11:30:35.675Z,0.94
2017-05-26T11:31:30.185Z,0.94
2017-05-26T11:32:24.791Z,0.93
2017-05-26T11:33:19.355Z,0.92
2017-05-26T11:34:13.912Z,0.92
2017-05-26T11:35:02.441Z,0.93
2017-05-26T11:35:49.961Z,0.92
2017-05-26T11:36:43.982Z,0.90
2017-05-26T11:37:32.991Z,0.88
2017-05-26T11:38:32.498Z,0.88
2017-05-26T11:39:32.445Z,0.90
2017-05-26T11:40:26.434Z,0.92
2017-05-26T11:41:26.401Z,0.94
2017-05-26T11:42:20.383Z,0.94
2017-05-26T11:43:15.365Z,0.95
2017-05-26T11:44:09.950Z,0.95
2017-05-26T11:45:09.469Z,0.95
2017-05-26T11:46:03.553Z,0.96
2017-05-26T11:46:57.520Z,0.94
2017-05-26T11:47:45.478Z,0.95
2017-05-26T11:48:39.470Z,0.94
2017-05-26T11:49:27.464Z,0.94
2017-05-26T11:50:27.426Z,0.95
2017-05-26T11:51:16.708Z,0.92
2017-05-26T11:52:10.019Z,0.91
2017-05-26T11:52:58.959Z,0.87
2017-05-26T11:53:53.504Z,0.87
2017-05-26T11:54:53.075Z,0.85
2017-05-26T11:55:41.049Z,0.83
2017-05-26T11:56:35.302Z,0.83
2017-05-26T11:57:23.970Z,0.83
2017-05-26T11:58:18.550Z,0.84
2017-05-26T11:59:18.112Z,0.87
2017-05-26T12:00:18.083Z,0.89
2017-05-26T12:01:18.107Z,0.93
2017-05-26T12:02:12.373Z,0.94
2017-05-26T12:03:00.062Z,0.94
2017-05-26T12:03:43.083Z,0.94
2017-05-26T12:04:37.561Z,0.95
2017-05-26T12:05:32.071Z,0.93
2017-05-26T12:06:20.637Z,0.94
2017-05-26T12:07:15.537Z,0.93
2017-05-26T12:08:03.810Z,0.94